ENML/MOL METAR and TAF weather

Enter ICAO airport designator
Station Type Date Time Source
ENML METAR 2019/12/10 03:20 UTC NOAA

ENML 100320Z AUTO 01008KT 9999NDV FEW045/// M01/M03 Q1009


Station Type Date Time Source
ENML Decoded METAR 2019/12/10 03:20 UTC NOAA

Molde / Aro, Norway (ENML) 62-45N 007-16E 3M
Dec 09, 2019 - 10:20 PM EST / 2019.12.10 0320 UTC
Wind: from the N (010 degrees) at 9 MPH (8 KT):0
Sky conditions: mostly clear
Temperature: 30 F (-1 C)
Windchill: 21 F (-6 C):1
Dew Point: 26 F (-3 C)
Relative Humidity: 86%
Pressure (altimeter): 29.80 in. Hg (1009 hPa)
ob: ENML 100320Z AUTO 01008KT 9999NDV FEW045/// M01/M03 Q1009
cycle: 3

Station Type Date Time Source
ENML TAF UTC NOAA

Error!

Example: see airport list